Time;durP1;ratioP1;P1;durP2;ratioP2;P2;SDS_P1;SDS_P2;PMS_P1;PMS_P2;Temp;Humidity;BMP_temperature;BMP_pressure;BME280_temperature;BME280_humidity;BME280_pressure;Samples;Min_cycle;Max_cycle;Signal;HPM_P1;HPM_P2
2023/02/18 00:01:40;;;;;;;14.20;10.20;;;10.90;99.90;;;;;;4823326;29;20234;-63
2023/02/18 00:04:46;;;;;;;18.27;10.97;;;10.90;99.90;;;;;;4820718;29;20243;-63
2023/02/18 00:07:52;;;;;;;15.60;10.00;;;10.90;99.90;;;;;;4817258;29;20248;-63
2023/02/18 00:10:58;;;;;;;12.60;9.43;;;10.90;99.90;;;;;;4818291;29;20247;-63
2023/02/18 00:14:06;;;;;;;14.93;9.90;;;10.90;99.90;;;;;;4820079;29;20208;-63
2023/02/18 00:17:13;;;;;;;15.63;9.57;;;10.90;99.90;;;;;;4827144;29;20220;-64
2023/02/18 00:20:19;;;;;;;13.17;9.37;;;10.90;99.90;;;;;;4819720;29;20263;-62
2023/02/18 00:23:25;;;;;;;12.87;9.60;;;10.90;99.90;;;;;;4822269;29;20248;-63
2023/02/18 00:26:32;;;;;;;13.20;9.97;;;10.90;99.90;;;;;;4817123;29;20235;-64
2023/02/18 00:29:37;;;;;;;16.57;8.93;;;10.90;99.90;;;;;;4821202;29;20244;-63
2023/02/18 00:32:45;;;;;;;14.00;9.23;;;10.90;99.90;;;;;;4825152;29;20329;-62
2023/02/18 00:35:51;;;;;;;12.37;9.63;;;10.90;99.90;;;;;;4817338;29;20239;-63
2023/02/18 00:38:59;;;;;;;13.20;8.73;;;10.80;99.90;;;;;;4813023;29;20216;-62
2023/02/18 00:42:05;;;;;;;12.63;9.27;;;10.80;99.90;;;;;;4809254;29;20345;-63
2023/02/18 00:45:10;;;;;;;12.50;8.60;;;10.80;99.90;;;;;;4818741;29;20219;-63
2023/02/18 00:48:18;;;;;;;13.40;8.37;;;10.80;99.90;;;;;;4813613;29;20204;-63
2023/02/18 00:51:25;;;;;;;14.77;8.00;;;10.80;99.90;;;;;;4819959;29;20259;-63
2023/02/18 00:54:30;;;;;;;13.83;8.00;;;10.80;99.90;;;;;;4817334;29;20203;-63
2023/02/18 00:57:36;;;;;;;11.03;8.07;;;10.70;99.90;;;;;;4810016;29;20281;-63
2023/02/18 01:00:43;;;;;;;11.67;7.80;;;10.70;99.90;;;;;;4818798;29;20208;-63
2023/02/18 01:03:50;;;;;;;11.20;8.17;;;10.70;99.90;;;;;;4822138;29;20652;-63
2023/02/18 01:06:56;;;;;;;8.80;7.37;;;10.70;99.90;;;;;;4815095;29;20759;-63
2023/02/18 01:10:02;;;;;;;12.53;8.20;;;10.70;99.90;;;;;;4817983;29;20268;-63
2023/02/18 01:13:10;;;;;;;9.47;7.77;;;10.70;99.90;;;;;;4818238;29;20256;-63
2023/02/18 01:16:16;;;;;;;10.60;7.43;;;10.70;99.90;;;;;;4817673;29;20207;-63
2023/02/18 01:19:24;;;;;;;10.50;7.17;;;10.70;99.90;;;;;;4819660;29;20235;-63
2023/02/18 01:22:30;;;;;;;7.43;6.57;;;10.70;99.90;;;;;;4817762;29;20316;-63
2023/02/18 01:25:36;;;;;;;9.67;6.70;;;10.80;99.90;;;;;;4816690;29;20332;-63
2023/02/18 01:28:44;;;;;;;6.37;5.77;;;10.70;99.90;;;;;;4816960;29;20200;-63
2023/02/18 01:31:51;;;;;;;5.67;5.17;;;10.70;99.90;;;;;;4819658;29;20216;-63
2023/02/18 01:35:00;;;;;;;6.23;5.63;;;10.70;99.90;;;;;;4814302;29;20708;-63
2023/02/18 01:38:06;;;;;;;5.93;4.90;;;10.70;99.90;;;;;;4820305;29;20227;-63
2023/02/18 01:41:13;;;;;;;5.77;5.07;;;10.70;99.90;;;;;;4819872;29;20236;-63
2023/02/18 01:44:21;;;;;;;8.60;4.90;;;10.70;99.90;;;;;;4819592;29;20249;-62
2023/02/18 01:47:27;;;;;;;5.30;4.80;;;10.70;99.90;;;;;;4814366;29;20234;-63
2023/02/18 01:50:38;;;;;;;5.43;4.93;;;10.70;99.90;;;;;;4820062;29;20241;-62
2023/02/18 01:53:54;;;;;;;6.53;5.37;;;10.60;99.90;;;;;;4815964;29;20284;-64
2023/02/18 01:57:03;;;;;;;6.00;5.20;;;10.60;99.90;;;;;;4828744;29;20276;-63
2023/02/18 02:00:12;;;;;;;6.27;5.70;;;10.60;99.90;;;;;;4820911;29;20252;-64
2023/02/18 02:03:17;;;;;;;6.07;5.47;;;10.60;99.90;;;;;;4819251;29;20216;-63
2023/02/18 02:06:25;;;;;;;6.17;5.57;;;10.60;99.90;;;;;;4814708;29;20299;-63
2023/02/18 02:09:32;;;;;;;5.73;5.23;;;10.50;99.90;;;;;;4815002;29;20244;-64
2023/02/18 02:12:50;;;;;;;6.83;5.37;;;10.50;99.90;;;;;;4813465;29;20300;-63
2023/02/18 02:16:03;;;;;;;6.57;5.30;;;10.60;99.90;;;;;;4821337;29;20266;-63
2023/02/18 02:19:36;;;;;;;6.23;5.63;;;10.50;99.90;;;;;;4818380;29;20253;-64
2023/02/18 02:23:36;;;;;;;6.30;5.63;;;10.50;99.90;;;;;;4821025;29;20224;-63
2023/02/18 02:27:08;;;;;;;5.13;4.80;;;10.50;99.90;;;;;;4822019;29;20235;-63
2023/02/18 02:30:47;;;;;;;5.47;5.07;;;10.50;99.90;;;;;;4817352;29;20568;-63
2023/02/18 02:34:33;;;;;;;4.97;4.57;;;10.50;99.90;;;;;;4816317;29;20735;-63
2023/02/18 02:37:46;;;;;;;4.80;4.40;;;10.50;99.90;;;;;;4817761;29;20272;-63
2023/02/18 02:40:59;;;;;;;5.50;5.00;;;10.50;99.90;;;;;;4816703;29;20249;-63
2023/02/18 02:44:14;;;;;;;4.60;4.20;;;10.50;99.90;;;;;;4820288;29;20760;-63
2023/02/18 02:47:27;;;;;;;4.20;4.00;;;10.50;99.90;;;;;;4819258;29;20207;-63
2023/02/18 02:50:40;;;;;;;4.67;4.27;;;10.50;99.90;;;;;;4813496;29;20658;-63
2023/02/18 02:53:46;;;;;;;4.60;4.20;;;10.50;99.90;;;;;;4816909;29;20232;-63
2023/02/18 02:57:05;;;;;;;3.90;3.70;;;10.50;99.90;;;;;;4811155;29;20296;-63
2023/02/18 03:00:14;;;;;;;3.70;3.50;;;10.40;99.90;;;;;;4821906;29;20230;-63
2023/02/18 03:03:36;;;;;;;3.93;3.63;;;10.40;99.90;;;;;;4819550;29;20213;-63
2023/02/18 03:07:01;;;;;;;3.83;3.53;;;10.40;99.90;;;;;;4818290;29;20260;-63
2023/02/18 03:10:25;;;;;;;3.73;3.53;;;10.40;99.90;;;;;;4819536;29;20772;-63
2023/02/18 03:13:50;;;;;;;5.27;3.67;;;10.30;99.90;;;;;;4818404;29;20727;-63
2023/02/18 03:17:02;;;;;;;3.33;3.07;;;10.40;99.90;;;;;;4820772;29;20219;-64
2023/02/18 03:20:16;;;;;;;4.17;3.87;;;10.30;99.90;;;;;;4822299;29;20231;-64
2023/02/18 03:23:27;;;;;;;3.37;3.17;;;10.30;99.90;;;;;;4821365;29;20240;-63
2023/02/18 03:26:37;;;;;;;3.90;3.60;;;10.30;99.90;;;;;;4821727;29;20204;-64
2023/02/18 03:29:47;;;;;;;3.70;3.50;;;10.30;99.90;;;;;;4821270;29;20853;-64
2023/02/18 03:32:57;;;;;;;3.87;3.57;;;10.30;99.90;;;;;;4821425;29;20342;-64
2023/02/18 03:36:03;;;;;;;3.50;3.23;;;10.30;99.90;;;;;;4823479;29;20236;-64
2023/02/18 03:39:14;;;;;;;3.50;3.10;;;10.20;99.90;;;;;;4824328;29;20240;-64
2023/02/18 03:42:25;;;;;;;3.13;2.83;;;10.20;99.90;;;;;;4812220;29;20231;-64
2023/02/18 03:45:31;;;;;;;3.60;3.37;;;10.20;99.90;;;;;;4823873;29;20241;-63
2023/02/18 03:48:38;;;;;;;3.33;3.17;;;10.20;99.90;;;;;;4824405;29;20568;-64
2023/02/18 03:51:44;;;;;;;3.37;3.17;;;10.20;99.90;;;;;;4811015;29;20560;-64
2023/02/18 03:54:51;;;;;;;3.37;3.03;;;10.20;99.90;;;;;;4820021;29;20208;-64
2023/02/18 03:57:57;;;;;;;3.20;3.03;;;10.20;99.90;;;;;;4814167;29;20278;-64
2023/02/18 04:01:04;;;;;;;2.70;2.60;;;10.20;99.90;;;;;;4823322;29;20204;-63
2023/02/18 04:04:10;;;;;;;2.70;2.60;;;10.20;99.90;;;;;;4823537;29;20231;-63
2023/02/18 04:07:16;;;;;;;2.63;2.53;;;10.20;99.90;;;;;;4822536;29;20277;-63
2023/02/18 04:10:23;;;;;;;2.50;2.40;;;10.20;99.90;;;;;;4818763;29;20278;-63
2023/02/18 04:13:28;;;;;;;2.90;2.80;;;10.20;99.90;;;;;;4824735;29;20239;-63
2023/02/18 04:16:34;;;;;;;3.20;3.10;;;10.20;99.90;;;;;;4820703;29;20645;-64
2023/02/18 04:19:40;;;;;;;4.70;3.10;;;10.20;99.90;;;;;;4825021;29;20255;-64
2023/02/18 04:22:46;;;;;;;3.23;3.03;;;10.20;99.90;;;;;;4822537;29;20228;-63
2023/02/18 04:25:53;;;;;;;3.57;3.30;;;10.20;99.90;;;;;;4814646;29;20288;-64
2023/02/18 04:28:59;;;;;;;3.07;2.70;;;10.20;99.90;;;;;;4818185;29;20718;-63
2023/02/18 04:32:05;;;;;;;3.40;3.20;;;10.20;99.90;;;;;;4823936;29;20675;-64
2023/02/18 04:35:11;;;;;;;3.03;2.80;;;10.20;99.90;;;;;;4817767;29;20227;-63
2023/02/18 04:38:17;;;;;;;3.20;3.00;;;10.20;99.90;;;;;;4813850;29;20277;-63
2023/02/18 04:41:24;;;;;;;2.90;2.70;;;10.20;99.90;;;;;;4821013;29;20296;-64
2023/02/18 04:44:30;;;;;;;2.73;2.63;;;10.20;99.90;;;;;;4821750;29;20239;-64
2023/02/18 04:47:36;;;;;;;2.93;2.40;;;10.20;99.90;;;;;;4818584;29;20414;-63
2023/02/18 04:50:41;;;;;;;3.33;3.13;;;10.20;99.90;;;;;;4823345;29;20568;-63
2023/02/18 04:53:47;;;;;;;3.20;3.00;;;10.10;99.90;;;;;;4823598;29;20265;-65
2023/02/18 04:56:54;;;;;;;3.10;3.00;;;10.10;99.90;;;;;;4814757;29;20753;-64
2023/02/18 05:00:00;;;;;;;3.33;3.13;;;10.10;99.90;;;;;;4816034;29;20283;-64
2023/02/18 05:03:06;;;;;;;3.67;3.47;;;10.10;99.90;;;;;;4817853;29;20208;-63
2023/02/18 05:06:12;;;;;;;3.77;3.30;;;10.10;99.90;;;;;;4822954;29;20244;-64
2023/02/18 05:09:18;;;;;;;3.60;3.40;;;10.10;99.90;;;;;;4817345;29;20244;-64
2023/02/18 05:12:25;;;;;;;4.00;3.67;;;10.10;99.90;;;;;;4817404;29;20284;-64
2023/02/18 05:15:31;;;;;;;5.13;3.20;;;10.10;99.90;;;;;;4817935;29;20196;-64
2023/02/18 05:18:37;;;;;;;8.70;3.97;;;10.00;99.90;;;;;;4821723;29;20272;-64
2023/02/18 05:21:43;;;;;;;6.10;3.20;;;10.00;99.90;;;;;;4809422;29;20286;-64
2023/02/18 05:24:49;;;;;;;6.40;3.20;;;9.90;99.90;;;;;;4822111;29;20592;-63
2023/02/18 05:27:56;;;;;;;7.73;3.27;;;10.00;99.90;;;;;;4822302;29;20598;-64
2023/02/18 05:31:02;;;;;;;6.17;2.80;;;10.00;99.90;;;;;;4813690;29;20200;-64
2023/02/18 05:34:08;;;;;;;7.53;3.07;;;10.00;99.90;;;;;;4822377;29;20220;-65
2023/02/18 05:37:13;;;;;;;7.40;3.40;;;10.00;99.90;;;;;;4815061;29;20235;-64
2023/02/18 05:40:20;;;;;;;9.17;2.50;;;10.00;99.90;;;;;;4811009;29;20270;-65
2023/02/18 05:43:27;;;;;;;11.83;2.63;;;10.00;99.90;;;;;;4812848;29;20632;-64
2023/02/18 05:46:33;;;;;;;7.60;2.90;;;10.00;99.90;;;;;;4822634;29;20333;-64
2023/02/18 05:49:40;;;;;;;11.97;3.07;;;10.00;99.90;;;;;;4815885;29;20748;-64
2023/02/18 05:52:45;;;;;;;11.80;2.90;;;10.00;99.90;;;;;;4815197;29;20240;-63
2023/02/18 05:55:51;;;;;;;9.57;2.90;;;10.10;99.90;;;;;;4820355;29;20679;-63
2023/02/18 05:58:58;;;;;;;13.37;3.10;;;10.10;99.90;;;;;;4822354;29;20251;-63
2023/02/18 06:02:04;;;;;;;11.83;3.40;;;10.10;99.90;;;;;;4826617;29;20257;-64
2023/02/18 06:05:10;;;;;;;11.90;2.40;;;10.10;99.90;;;;;;4819004;29;20622;-63
2023/02/18 06:08:16;;;;;;;13.73;2.80;;;10.10;99.90;;;;;;4814306;29;20231;-64
2023/02/18 06:11:22;;;;;;;9.73;2.50;;;10.10;99.90;;;;;;4821989;29;20327;-63
2023/02/18 06:14:29;;;;;;;13.70;2.63;;;10.10;99.90;;;;;;4825200;29;20262;-63
2023/02/18 06:17:35;;;;;;;16.30;3.53;;;10.10;99.90;;;;;;4815536;29;20201;-64
2023/02/18 06:20:41;;;;;;;13.37;2.80;;;10.10;99.90;;;;;;4815643;29;20215;-63
2023/02/18 06:23:47;;;;;;;10.67;3.00;;;10.10;99.90;;;;;;4813487;29;20612;-63
2023/02/18 06:26:53;;;;;;;16.63;3.77;;;10.10;99.90;;;;;;4817320;29;20282;-63
2023/02/18 06:30:00;;;;;;;11.73;2.77;;;10.10;99.90;;;;;;4813269;29;20232;-64
2023/02/18 06:33:06;;;;;;;10.97;2.97;;;10.10;99.90;;;;;;4815276;29;20203;-63
2023/02/18 06:36:13;;;;;;;11.77;3.10;;;10.10;99.90;;;;;;4818700;29;20207;-62
2023/02/18 06:39:19;;;;;;;12.17;2.77;;;10.10;99.90;;;;;;4815048;29;20235;-63
2023/02/18 06:42:25;;;;;;;15.03;3.07;;;10.10;99.90;;;;;;4818208;29;20253;-63
2023/02/18 06:45:32;;;;;;;12.17;3.40;;;10.10;99.90;;;;;;4814481;29;20252;-63
2023/02/18 06:48:38;;;;;;;12.67;4.23;;;10.10;99.90;;;;;;4812554;29;20229;-62
2023/02/18 06:51:44;;;;;;;8.57;2.67;;;10.20;99.90;;;;;;4820401;29;20327;-63
2023/02/18 06:54:49;;;;;;;15.63;3.07;;;10.20;99.90;;;;;;4816492;29;20260;-63
2023/02/18 06:57:55;;;;;;;12.57;2.93;;;10.20;99.90;;;;;;4822687;29;20589;-63
2023/02/18 07:01:03;;;;;;;9.13;3.03;;;10.20;99.90;;;;;;4817318;29;20223;-63
2023/02/18 07:04:09;;;;;;;15.53;3.07;;;10.20;99.90;;;;;;4821844;29;20269;-63
2023/02/18 07:07:15;;;;;;;12.03;2.80;;;10.20;99.90;;;;;;4821236;29;20653;-63
2023/02/18 07:10:21;;;;;;;17.00;2.80;;;10.30;99.90;;;;;;4820871;29;20313;-63
2023/02/18 07:13:27;;;;;;;10.80;2.83;;;10.30;99.90;;;;;;4820804;29;20211;-63
2023/02/18 07:16:34;;;;;;;14.77;2.43;;;10.30;99.90;;;;;;4815575;29;20212;-63
2023/02/18 07:19:41;;;;;;;14.80;2.70;;;10.30;99.90;;;;;;4822560;29;20341;-63
2023/02/18 07:22:46;;;;;;;11.73;2.80;;;10.30;99.90;;;;;;4818514;29;20950;-62
2023/02/18 07:25:52;;;;;;;10.23;2.67;;;10.30;99.90;;;;;;4821997;29;20244;-62
2023/02/18 07:28:58;;;;;;;7.87;2.37;;;10.30;99.90;;;;;;4823405;29;20594;-63
2023/02/18 07:32:06;;;;;;;17.73;2.70;;;10.30;99.90;;;;;;4818584;29;20209;-62
2023/02/18 07:35:14;;;;;;;9.40;3.20;;;10.40;99.90;;;;;;4823974;29;20303;-62
2023/02/18 07:38:20;;;;;;;13.30;2.63;;;10.40;99.90;;;;;;4816511;29;20247;-62
2023/02/18 07:41:26;;;;;;;11.10;2.30;;;10.40;99.90;;;;;;4821746;29;20241;-63
2023/02/18 07:44:32;;;;;;;12.50;2.87;;;10.40;99.90;;;;;;4819300;29;20228;-62
2023/02/18 07:47:40;;;;;;;7.77;2.53;;;10.40;99.90;;;;;;4821694;29;20200;-62
2023/02/18 07:50:46;;;;;;;16.20;3.20;;;10.40;99.90;;;;;;4821624;29;20192;-62
2023/02/18 07:53:52;;;;;;;9.93;3.20;;;10.50;99.90;;;;;;4825439;29;20576;-62
2023/02/18 07:56:58;;;;;;;12.13;3.27;;;10.50;99.90;;;;;;4818949;29;20560;-63
2023/02/18 08:00:05;;;;;;;11.73;3.30;;;10.50;99.90;;;;;;4821346;29;20228;-63
2023/02/18 08:03:12;;;;;;;13.63;2.90;;;10.50;99.90;;;;;;4815329;29;20282;-62
2023/02/18 08:06:22;;;;;;;15.70;3.67;;;10.60;99.90;;;;;;4818304;29;20799;-62
2023/02/18 08:09:28;;;;;;;12.77;3.57;;;10.60;99.90;;;;;;4826686;29;20248;-62
2023/02/18 08:12:33;;;;;;;12.80;2.70;;;10.60;99.90;;;;;;4822994;29;20208;-62
2023/02/18 08:15:40;;;;;;;9.87;2.73;;;10.70;99.90;;;;;;4832785;29;20228;-63
2023/02/18 08:18:48;;;;;;;10.77;2.70;;;10.70;99.90;;;;;;4823957;29;20241;-63
2023/02/18 08:21:54;;;;;;;10.57;2.80;;;10.80;99.90;;;;;;4824283;29;20312;-63
2023/02/18 08:25:00;;;;;;;15.80;2.67;;;10.80;99.90;;;;;;4828971;29;20227;-62
2023/02/18 08:28:07;;;;;;;9.07;2.67;;;10.80;99.90;;;;;;4823663;29;20225;-63
2023/02/18 08:31:18;;;;;;;10.47;2.73;;;10.80;99.90;;;;;;4817260;29;20227;-63
2023/02/18 08:34:26;;;;;;;4.93;2.30;;;10.90;99.90;;;;;;4821428;29;20250;-62
2023/02/18 08:37:32;;;;;;;7.37;1.90;;;10.90;99.90;;;;;;4815572;29;20256;-66
2023/02/18 08:41:02;;;;;;;7.20;2.00;;;10.80;99.90;;;;;;4824466;29;20251;-66
2023/02/18 08:44:08;;;;;;;6.77;1.90;;;10.80;99.90;;;;;;4820887;29;20216;-66
2023/02/18 08:47:13;;;;;;;10.13;2.33;;;10.80;99.90;;;;;;4808086;29;20240;-66
2023/02/18 08:50:41;;;;;;;8.47;2.00;;;10.80;99.90;;;;;;4818847;29;20234;-66
2023/02/18 08:53:47;;;;;;;9.37;2.33;;;11.00;99.90;;;;;;4819921;29;20779;-66
2023/02/18 08:56:56;;;;;;;10.37;2.27;;;11.00;99.90;;;;;;4820448;29;20204;-66
2023/02/18 09:00:02;;;;;;;11.73;2.40;;;11.10;99.90;;;;;;4812178;29;20320;-66
2023/02/18 09:03:08;;;;;;;3.67;2.00;;;11.20;99.90;;;;;;4808733;29;20216;-66
2023/02/18 09:06:15;;;;;;;7.33;2.23;;;11.20;99.90;;;;;;4822824;29;20251;-66
2023/02/18 09:09:21;;;;;;;9.17;2.57;;;11.20;99.90;;;;;;4819208;29;20276;-66
2023/02/18 09:12:28;;;;;;;9.70;2.50;;;11.20;99.90;;;;;;4811746;29;20851;-66
2023/02/18 09:15:34;;;;;;;11.43;2.50;;;11.10;99.90;;;;;;4810703;29;20235;-66
2023/02/18 09:18:40;;;;;;;8.33;2.70;;;11.10;99.90;;;;;;4817824;29;20593;-66
2023/02/18 09:21:47;;;;;;;7.33;2.43;;;11.20;99.90;;;;;;4808009;29;20625;-66
2023/02/18 09:24:52;;;;;;;10.67;2.90;;;11.20;99.90;;;;;;4813368;29;20235;-66
2023/02/18 09:27:58;;;;;;;12.23;2.47;;;11.30;99.90;;;;;;4810938;29;20211;-66
2023/02/18 09:31:06;;;;;;;8.33;2.30;;;11.40;99.90;;;;;;4806532;29;20236;-66
2023/02/18 09:34:12;;;;;;;6.77;2.10;;;11.40;99.90;;;;;;4816153;29;20227;-66
2023/02/18 09:37:20;;;;;;;9.90;2.27;;;11.50;99.90;;;;;;4806832;29;20265;-66
2023/02/18 09:40:29;;;;;;;11.37;2.50;;;11.50;99.90;;;;;;4820278;29;20292;-66
2023/02/18 09:43:38;;;;;;;9.23;2.43;;;11.50;99.90;;;;;;4817094;29;20211;-66
2023/02/18 09:46:50;;;;;;;9.50;2.10;;;11.60;99.90;;;;;;4808477;29;20280;-66
2023/02/18 09:50:00;;;;;;;8.20;2.43;;;11.50;99.90;;;;;;4809328;29;20273;-66
2023/02/18 09:53:07;;;;;;;8.27;2.67;;;11.60;99.90;;;;;;4816998;29;20220;-66
2023/02/18 09:56:15;;;;;;;13.60;3.13;;;11.60;99.90;;;;;;4821049;29;20304;-66
2023/02/18 09:59:24;;;;;;;7.60;2.13;;;11.70;99.90;;;;;;4813263;29;20212;-66
2023/02/18 10:02:31;;;;;;;10.27;2.50;;;11.70;99.90;;;;;;4818452;29;20228;-66
2023/02/18 10:05:42;;;;;;;8.13;2.50;;;11.70;99.90;;;;;;4813375;29;21104;-66
2023/02/18 10:08:52;;;;;;;8.60;2.43;;;11.70;99.90;;;;;;4817387;29;20700;-66
2023/02/18 10:12:02;;;;;;;11.87;2.70;;;11.60;99.90;;;;;;4817181;29;20208;-66
2023/02/18 10:15:20;;;;;;;10.00;2.53;;;11.60;99.90;;;;;;4821719;29;20261;-66
2023/02/18 10:18:28;;;;;;;6.53;2.20;;;11.60;99.90;;;;;;4814567;29;20211;-66
2023/02/18 10:21:40;;;;;;;9.50;2.53;;;11.70;99.90;;;;;;4810500;29;20229;-66
2023/02/18 10:24:51;;;;;;;7.90;2.27;;;11.70;99.90;;;;;;4813503;29;20227;-66
2023/02/18 10:27:58;;;;;;;13.67;2.40;;;11.70;99.90;;;;;;4817010;29;20572;-66
2023/02/18 10:31:09;;;;;;;11.67;2.60;;;11.70;99.90;;;;;;4818800;29;20235;-66
2023/02/18 10:34:24;;;;;;;9.53;2.90;;;11.60;99.90;;;;;;4818261;29;20243;-66
2023/02/18 10:37:45;;;;;;;11.30;3.00;;;11.60;99.90;;;;;;4821886;29;20617;-66
2023/02/18 10:40:59;;;;;;;8.30;2.63;;;11.60;99.90;;;;;;4819012;29;20251;-66
2023/02/18 10:44:13;;;;;;;6.70;2.50;;;11.70;99.90;;;;;;4814141;29;20230;-66
2023/02/18 10:47:30;;;;;;;12.60;2.80;;;11.70;99.90;;;;;;4822027;29;20232;-66
2023/02/18 10:50:40;;;;;;;18.70;3.03;;;11.70;99.90;;;;;;4822660;29;20204;-66
2023/02/18 10:53:48;;;;;;;6.80;2.23;;;11.80;99.90;;;;;;4820626;29;20337;-66
2023/02/18 10:57:01;;;;;;;9.77;2.60;;;11.70;99.90;;;;;;4823435;29;20233;-66
2023/02/18 11:00:18;;;;;;;10.13;2.93;;;11.80;99.90;;;;;;4820777;29;20678;-66
2023/02/18 11:03:24;;;;;;;10.30;2.67;;;11.80;99.90;;;;;;4819166;29;20259;-66
2023/02/18 11:06:34;;;;;;;8.60;2.77;;;11.80;99.90;;;;;;4817506;29;20247;-66
2023/02/18 11:09:42;;;;;;;8.27;2.97;;;11.80;99.90;;;;;;4829901;29;20734;-66
2023/02/18 11:12:57;;;;;;;9.13;3.03;;;11.90;99.90;;;;;;4819682;29;20761;-66
2023/02/18 11:16:06;;;;;;;7.77;2.77;;;11.90;99.90;;;;;;4823595;29;20227;-66
2023/02/18 11:19:33;;;;;;;16.13;2.70;;;12.00;99.90;;;;;;4821632;29;20235;-66
2023/02/18 11:22:40;;;;;;;14.17;3.20;;;12.10;99.90;;;;;;4821364;29;20281;-66
2023/02/18 11:25:57;;;;;;;13.53;3.57;;;12.20;99.90;;;;;;4822160;29;20228;-66
2023/02/18 11:29:09;;;;;;;13.57;3.13;;;12.20;99.90;;;;;;4819481;29;20704;-66
2023/02/18 11:32:15;;;;;;;11.20;2.70;;;12.30;99.90;;;;;;4816415;29;20231;-66
2023/02/18 11:35:25;;;;;;;9.07;2.80;;;12.30;99.90;;;;;;4823003;29;20691;-66
2023/02/18 11:38:37;;;;;;;14.63;2.50;;;12.40;99.90;;;;;;4819756;29;20199;-66
2023/02/18 11:41:46;;;;;;;8.73;2.87;;;12.50;99.90;;;;;;4816762;29;20329;-66
2023/02/18 11:44:56;;;;;;;11.27;2.90;;;12.50;99.90;;;;;;4815082;29;20200;-66
2023/02/18 11:48:09;;;;;;;9.97;2.63;;;12.50;99.90;;;;;;4808553;29;20278;-66
2023/02/18 11:51:20;;;;;;;8.90;2.50;;;12.50;99.90;;;;;;4816948;29;20564;-66
2023/02/18 11:54:28;;;;;;;11.00;3.20;;;12.50;99.90;;;;;;4815053;29;20236;-66
2023/02/18 11:57:37;;;;;;;9.23;2.63;;;12.50;99.90;;;;;;4816888;29;20580;-66
2023/02/18 12:00:46;;;;;;;6.93;2.90;;;12.50;99.90;;;;;;4812653;29;20265;-66
2023/02/18 12:03:56;;;;;;;10.30;3.00;;;12.60;99.90;;;;;;4813773;29;20237;-66
2023/02/18 12:07:15;;;;;;;6.63;2.80;;;12.50;99.90;;;;;;4811466;29;20211;-66
2023/02/18 12:10:26;;;;;;;6.43;2.40;;;12.50;99.90;;;;;;4812343;29;20287;-66
2023/02/18 12:13:36;;;;;;;11.03;2.70;;;12.50;99.90;;;;;;4812810;29;20227;-66
2023/02/18 12:16:56;;;;;;;12.37;3.17;;;12.50;99.90;;;;;;4817378;29;20240;-66
2023/02/18 12:20:23;;;;;;;9.13;2.63;;;12.40;99.90;;;;;;4816700;29;20201;-66
2023/02/18 12:23:36;;;;;;;6.67;2.70;;;12.50;99.90;;;;;;4816942;29;20228;-66
2023/02/18 12:26:53;;;;;;;10.43;2.70;;;12.50;99.90;;;;;;4819983;29;20236;-66
2023/02/18 12:30:29;;;;;;;7.50;2.93;;;12.50;99.90;;;;;;4810826;29;20217;-66
2023/02/18 12:33:48;;;;;;;10.83;2.43;;;12.40;99.90;;;;;;4806886;29;20236;-66
2023/02/18 12:37:04;;;;;;;8.93;2.47;;;12.40;99.90;;;;;;4812090;29;20284;-66
2023/02/18 12:40:33;;;;;;;5.60;2.67;;;12.40;99.90;;;;;;4811515;29;20343;-66
2023/02/18 12:43:53;;;;;;;15.70;2.80;;;12.30;99.90;;;;;;4822267;29;20277;-66
2023/02/18 12:47:27;;;;;;;6.67;2.93;;;12.30;99.90;;;;;;4817858;29;20236;-66
2023/02/18 12:51:11;;;;;;;9.77;2.93;;;12.20;99.90;;;;;;4815736;29;20212;-66
2023/02/18 12:54:37;;;;;;;11.97;3.07;;;12.10;99.90;;;;;;4815264;29;20277;-66
2023/02/18 12:57:50;;;;;;;9.00;2.80;;;12.00;99.90;;;;;;4825232;29;20273;-66
2023/02/18 13:01:09;;;;;;;15.33;3.23;;;12.00;99.90;;;;;;4815080;29;20239;-66
2023/02/18 13:04:34;;;;;;;15.60;2.83;;;11.90;99.90;;;;;;4805421;29;21025;-66
2023/02/18 13:07:58;;;;;;;14.07;3.27;;;12.00;99.90;;;;;;4810779;29;20353;-66
2023/02/18 13:11:19;;;;;;;8.33;3.20;;;11.90;99.90;;;;;;4813317;29;20739;-66
2023/02/18 13:14:32;;;;;;;17.57;3.50;;;11.90;99.90;;;;;;4819414;29;20549;-66
2023/02/18 13:17:42;;;;;;;8.40;3.40;;;11.80;99.90;;;;;;4818124;29;20302;-66
2023/02/18 13:20:52;;;;;;;12.37;3.90;;;11.70;99.90;;;;;;4824123;29;20220;-66
2023/02/18 13:24:04;;;;;;;10.97;3.80;;;11.60;99.90;;;;;;4818007;29;20227;-66
2023/02/18 13:27:21;;;;;;;10.20;3.73;;;11.50;99.90;;;;;;4820321;29;20297;-66
2023/02/18 13:30:33;;;;;;;11.93;3.63;;;11.50;99.90;;;;;;4818013;29;20200;-66
2023/02/18 13:33:47;;;;;;;8.97;3.00;;;11.50;99.90;;;;;;4818898;29;20246;-66
2023/02/18 13:37:07;;;;;;;7.63;3.63;;;11.50;99.90;;;;;;4831766;29;20203;-66
2023/02/18 13:40:20;;;;;;;9.70;3.37;;;11.50;99.90;;;;;;4818287;29;20208;-66
2023/02/18 13:43:31;;;;;;;17.17;3.70;;;11.50;99.90;;;;;;4818678;29;20255;-66
2023/02/18 13:46:49;;;;;;;11.77;3.57;;;11.50;99.90;;;;;;4816690;29;20285;-66
2023/02/18 13:49:55;;;;;;;8.80;3.80;;;11.50;99.90;;;;;;4819076;29;20284;-66
2023/02/18 13:53:24;;;;;;;10.73;4.07;;;11.50;99.90;;;;;;4828922;29;20256;-66
2023/02/18 13:56:34;;;;;;;10.60;3.83;;;11.60;99.90;;;;;;4819869;29;20282;-66
2023/02/18 13:59:44;;;;;;;16.03;4.70;;;11.60;99.90;;;;;;4827609;29;20216;-66
2023/02/18 14:02:57;;;;;;;9.00;4.17;;;11.60;99.90;;;;;;4816248;29;20298;-66
2023/02/18 14:06:14;;;;;;;16.00;4.80;;;11.60;99.90;;;;;;4813064;29;20204;-66
2023/02/18 14:09:38;;;;;;;18.83;4.30;;;11.50;99.90;;;;;;4815636;29;20279;-65
2023/02/18 14:13:22;;;;;;;12.70;4.20;;;11.50;99.90;;;;;;4818374;29;20768;-66
2023/02/18 14:17:07;;;;;;;14.33;4.53;;;11.50;99.90;;;;;;4816109;29;20208;-66
2023/02/18 14:20:44;;;;;;;8.73;4.20;;;11.50;99.90;;;;;;4815378;29;20259;-65
2023/02/18 14:24:00;;;;;;;9.03;4.53;;;11.50;99.90;;;;;;4815744;29;20266;-66
2023/02/18 14:27:16;;;;;;;9.10;4.47;;;11.50;99.90;;;;;;4815085;29;20243;-66
2023/02/18 14:30:33;;;;;;;7.40;4.60;;;11.40;99.90;;;;;;4815397;29;20212;-66
2023/02/18 14:33:43;;;;;;;9.03;4.77;;;11.40;99.90;;;;;;4821858;29;20235;-66
2023/02/18 14:36:57;;;;;;;9.57;4.57;;;11.40;99.90;;;;;;4822338;29;20303;-66
2023/02/18 14:40:19;;;;;;;17.33;4.90;;;11.40;99.90;;;;;;4819749;29;20233;-66
2023/02/18 14:43:47;;;;;;;7.23;4.97;;;11.40;99.90;;;;;;4822011;29;20235;-66
2023/02/18 14:47:10;;;;;;;10.93;4.63;;;11.50;99.90;;;;;;4817566;29;20265;-66
2023/02/18 14:50:20;;;;;;;13.20;4.93;;;11.50;99.90;;;;;;4817313;29;20228;-66
2023/02/18 14:53:27;;;;;;;10.10;4.60;;;11.50;99.90;;;;;;4818837;29;20224;-66
2023/02/18 14:56:38;;;;;;;14.97;4.47;;;11.50;99.90;;;;;;4814326;29;20244;-66
2023/02/18 14:59:44;;;;;;;10.37;4.63;;;11.50;99.90;;;;;;4816950;29;20200;-66
2023/02/18 15:02:55;;;;;;;12.27;4.90;;;11.50;99.90;;;;;;4809619;29;20240;-66
2023/02/18 15:06:01;;;;;;;6.17;4.10;;;11.60;99.90;;;;;;4818770;29;20249;-66
2023/02/18 15:09:14;;;;;;;10.33;4.73;;;11.60;99.90;;;;;;4820353;29;20700;-66
2023/02/18 15:12:22;;;;;;;13.80;4.90;;;11.50;99.90;;;;;;4820909;29;20255;-65
2023/02/18 15:15:34;;;;;;;9.97;5.27;;;11.60;99.90;;;;;;4820583;29;20204;-65
2023/02/18 15:18:44;;;;;;;17.40;5.27;;;11.60;99.90;;;;;;4824420;29;20239;-66
2023/02/18 15:21:55;;;;;;;19.03;5.70;;;11.50;99.90;;;;;;4816420;29;20241;-66
2023/02/18 15:25:02;;;;;;;17.33;5.70;;;11.50;99.90;;;;;;4820016;29;20237;-66
2023/02/18 15:28:22;;;;;;;19.23;5.47;;;11.50;99.90;;;;;;4829076;29;20575;-66
2023/02/18 15:31:30;;;;;;;10.60;4.13;;;11.50;99.90;;;;;;4827740;29;20218;-66
2023/02/18 15:34:39;;;;;;;13.60;4.60;;;11.50;99.90;;;;;;4828982;29;20228;-66
2023/02/18 15:37:46;;;;;;;11.93;4.60;;;11.50;99.90;;;;;;4827757;29;20204;-65
2023/02/18 15:40:54;;;;;;;13.83;4.80;;;11.50;99.90;;;;;;4824327;29;20340;-65
2023/02/18 15:44:04;;;;;;;13.37;5.33;;;11.50;99.90;;;;;;4821989;29;20228;-66
2023/02/18 15:47:10;;;;;;;10.73;5.40;;;11.50;99.90;;;;;;4821239;29;20260;-66
2023/02/18 15:50:21;;;;;;;13.80;5.83;;;11.50;99.90;;;;;;4823099;29;20800;-65
2023/02/18 15:53:27;;;;;;;16.20;10.03;;;11.40;99.90;;;;;;4821729;29;20269;-66
2023/02/18 15:56:36;;;;;;;14.00;8.77;;;11.40;99.90;;;;;;4819674;29;20304;-66
2023/02/18 15:59:53;;;;;;;11.20;6.93;;;11.40;99.90;;;;;;4822647;29;20243;-66
2023/02/18 16:03:09;;;;;;;12.47;5.47;;;11.40;99.90;;;;;;4818584;29;20257;-66
2023/02/18 16:06:22;;;;;;;9.57;4.97;;;11.40;99.90;;;;;;4822164;29;20698;-65
2023/02/18 16:09:32;;;;;;;9.07;4.60;;;11.40;99.90;;;;;;4823254;29;20259;-65
2023/02/18 16:12:40;;;;;;;12.97;4.90;;;11.30;99.90;;;;;;4821817;29;20227;-66
2023/02/18 16:15:48;;;;;;;11.40;4.63;;;11.30;99.90;;;;;;4823087;29;20253;-66
2023/02/18 16:18:54;;;;;;;5.80;4.33;;;11.30;99.90;;;;;;4821117;29;20243;-66
2023/02/18 16:22:05;;;;;;;6.90;3.90;;;11.30;99.90;;;;;;4822146;29;20219;-66
2023/02/18 16:25:17;;;;;;;12.33;4.50;;;11.30;99.90;;;;;;4821361;29;20223;-66
2023/02/18 16:28:26;;;;;;;6.73;4.40;;;11.20;99.90;;;;;;4818251;29;20243;-66